Norwegian Gem — C6VG8 — position and weather

sailwx.info

Track history (hours):
 
Tides and Currents Weather Stations Pressure Air Temp Water Temp Dewpoint Dewpoint Depression Visibility Wind Speed Wind Dir Waves Ship Positions

Norwegian Gem (Bahamas)

Last reported at 2017-Jul-22 18:30 UTC. Time now 2017-Jul-22 18:31 UTC.
Position N 40°46' W 073°60'.

Length 294 m; draft 8.6 m.

Type: Ship. MMSI: 309951000.

Date/timePositionNaut miles runAvg speedWind from/ knotsBaromVisibWave heightAir tempDewpointWater temp
2017-Jul-22 18:30N 40°46' W 073°60'0 0.0
2017-Jul-22 17:59N 40°46' W 073°60'0 0.0
2017-Jul-22 17:29N 40°46' W 073°60'0 0.0
2017-Jul-22 16:59N 40°46' W 073°60'0 0.0
2017-Jul-22 16:29N 40°46' W 073°60'0 0.0
2017-Jul-22 15:59N 40°46' W 073°60'0 0.0
2017-Jul-22 15:28N 40°46' W 073°60'0 0.0
2017-Jul-22 14:58N 40°46' W 073°60'0 0.0
2017-Jul-22 13:58N 40°46' W 073°60'0 0.0
2017-Jul-22 13:27N 40°46' W 073°60'0 0.0
2017-Jul-22 13:00N 40°46' W 073°60'0 0.0
2017-Jul-22 12:30N 40°46' W 073°60'0 0.0
2017-Jul-22 12:00N 40°46' W 073°60'0 0.0
2017-Jul-22 11:30N 40°46' W 073°60'0 0.0
2017-Jul-22 11:00N 40°46' W 073°60'0 0.1
2017-Jul-22 10:30N 40°46' W 073°60'3 6.1
2017-Jul-22 10:00N 40°43' W 074°01'612.7
2017-Jul-22 09:30N 40°37' W 074°03'815.6
2017-Jul-22 09:00N 40°30' W 073°57'815.4
2017-Jul-22 08:30N 40°26' W 073°49'815.2
2017-Jul-22 08:00N 40°19' W 073°46'1016.0
2017-Jul-22 07:22N 40°09' W 073°45'616.0
2017-Jul-22 06:59N 40°03' W 073°44'816.1
2017-Jul-22 06:30N 39°55' W 073°43'816.5
2017-Jul-22 06:00N 39°47' W 073°43'816.1
2017-Jul-22 05:31N 39°39' W 073°42'816.0
2017-Jul-22 05:01N 39°31' W 073°41'816.2
2017-Jul-22 04:30N 39°23' W 073°41'816.1
2017-Jul-22 04:01N 39°15' W 073°41'816.1
2017-Jul-22 03:30N 39°07' W 073°41'816.1
2017-Jul-22 03:00N 38°59' W 073°41'816.2
2017-Jul-22 02:30N 38°51' W 073°40'816.0
2017-Jul-22 02:00N 38°43' W 073°40'815.8
2017-Jul-22 01:30N 38°35' W 073°40'816.0
2017-Jul-22 01:00N 38°27' W 073°40'816.2
2017-Jul-22 00:30N 38°19' W 073°39'816.4
2017-Jul-22 00:00N 38°11' W 073°39'816.3
2017-Jul-21 23:31N 38°02' W 073°39'915.8
2017-Jul-21 22:56N 37°53' W 073°39'58716.3
2017-Jul-20 11:00N 28°24' W 076°30'173 3.7 010 / 111021.010.8 27.024.130.0
2017-Jul-18 12:00N 25°54' W 078°06'40210.9 170 / 121020.010.8 28.016.920.0
2017-Jul-16 23:00N 32°36' W 077°48'9820.0 230 / 111014.027.0 28.020.530.0
2017-Jul-16 18:06N 33°57' W 076°41'218.5
2017-Jul-16 17:58N 33°59' W 076°39'818.2
2017-Jul-16 17:30N 34°05' W 076°32'1019.1
2017-Jul-16 16:59N 34°12' W 076°24'1019.1
2017-Jul-16 16:29N 34°18' W 076°15'918.9
2017-Jul-16 16:00N 34°23' W 076°07'7719.2
2017-Jul-16 12:00N 35°18' W 075°00'20720.9 360 / 141016.010.8 22.020.521.0
2017-Jul-16 02:06N 38°40' W 074°05'620.4
2017-Jul-16 01:49N 38°46' W 074°03'1419.9
2017-Jul-16 01:07N 38°60' W 074°01'319.3
2017-Jul-16 00:57N 39°03' W 073°60'919.8
2017-Jul-16 00:30N 39°12' W 073°58'1219.9
2017-Jul-15 23:54N 39°24' W 073°56'819.7
2017-Jul-15 23:29N 39°32' W 073°54'1019.7
2017-Jul-15 22:59N 39°41' W 073°52'1019.7
2017-Jul-15 22:29N 39°51' W 073°51'2520.3
2017-Jul-15 21:14N 40°16' W 073°49'520.6
2017-Jul-15 21:00N 40°21' W 073°49'713.3
2017-Jul-15 20:30N 40°28' W 073°51'1019.2
2017-Jul-15 20:00N 40°33' W 074°02'816.1
2017-Jul-15 19:31N 40°41' W 074°02'511.0
2017-Jul-15 19:00N 40°46' W 074°00'0 0.5
2017-Jul-15 18:28N 40°46' W 073°60'0 0.0
2017-Jul-15 17:58N 40°46' W 073°60'0 0.0
2017-Jul-15 17:30N 40°46' W 073°60'0 0.0
2017-Jul-15 17:00N 40°46' W 073°60'0 0.0
2017-Jul-15 16:30N 40°46' W 073°60'0 0.0
2017-Jul-15 16:00N 40°46' W 073°60'0 0.0
2017-Jul-15 15:30N 40°46' W 073°60'0 0.0
2017-Jul-15 14:59N 40°46' W 073°60'0 0.0
2017-Jul-15 13:59N 40°46' W 073°60'0 0.0
2017-Jul-15 13:29N 40°46' W 073°60'0 0.0
2017-Jul-15 12:58N 40°46' W 073°60'0 0.0
2017-Jul-15 12:22N 40°46' W 073°60'0 0.0
2017-Jul-15 11:58N 40°46' W 073°60'0 0.0
2017-Jul-15 11:28N 40°46' W 073°60'0 0.0
2017-Jul-15 11:00N 40°46' W 073°60'0 0.0
2017-Jul-15 10:30N 40°46' W 073°60'0 0.0
2017-Jul-15 10:00N 40°46' W 073°60'0 0.0
2017-Jul-15 09:30N 40°46' W 073°60'0 0.5
2017-Jul-15 09:00N 40°46' W 074°00'4 9.2
2017-Jul-15 08:31N 40°42' W 074°02'713.7
2017-Jul-15 08:01N 40°35' W 074°02'816.8
2017-Jul-15 07:31N 40°29' W 073°54'612.3
2017-Jul-15 06:59N 40°25' W 073°47'714.6
2017-Jul-15 06:29N 40°18' W 073°46'1018.2
2017-Jul-15 05:56N 40°08' W 073°45'818.0
2017-Jul-15 05:30N 40°00' W 073°44'917.9
2017-Jul-15 04:59N 39°51' W 073°43'918.4
2017-Jul-15 04:28N 39°42' W 073°42'817.7
2017-Jul-15 04:00N 39°33' W 073°43'816.4
2017-Jul-15 03:30N 39°25' W 073°44'816.5
2017-Jul-15 02:59N 39°17' W 073°44'1316.7
2017-Jul-15 02:13N 39°04' W 073°46'516.6
2017-Jul-15 01:53N 38°58' W 073°46'6416.5
2017-Jul-14 22:00N 37°54' W 073°48'   210 / 151016.010.8 27.022.628.0
Track history (hours):
 
Tides and Currents Weather Stations Pressure Air Temp Water Temp Dewpoint Dewpoint Depression Visibility Wind Speed Wind Dir Waves Ship Positions

Norwegian Gem (Bahamas)

Last reported at 2017-Jul-22 18:30 UTC. Time now 2017-Jul-22 18:31 UTC.
Position N 40°46' W 073°60'.

Length 294 m; draft 8.6 m.

Type: Ship. MMSI: 309951000.

Date/timePositionNaut miles runAvg speedWind from/ knotsBaromVisibWave heightAir tempDewpointWater temp
2017-Jul-22 18:30N 40°46' W 073°60'0 0.0
2017-Jul-22 17:59N 40°46' W 073°60'0 0.0
2017-Jul-22 17:29N 40°46' W 073°60'0 0.0
2017-Jul-22 16:59N 40°46' W 073°60'0 0.0
2017-Jul-22 16:29N 40°46' W 073°60'0 0.0
2017-Jul-22 15:59N 40°46' W 073°60'0 0.0
2017-Jul-22 15:28N 40°46' W 073°60'0 0.0
2017-Jul-22 14:58N 40°46' W 073°60'0 0.0
2017-Jul-22 13:58N 40°46' W 073°60'0 0.0
2017-Jul-22 13:27N 40°46' W 073°60'0 0.0
2017-Jul-22 13:00N 40°46' W 073°60'0 0.0
2017-Jul-22 12:30N 40°46' W 073°60'0 0.0
2017-Jul-22 12:00N 40°46' W 073°60'0 0.0
2017-Jul-22 11:30N 40°46' W 073°60'0 0.0
2017-Jul-22 11:00N 40°46' W 073°60'0 0.1
2017-Jul-22 10:30N 40°46' W 073°60'3 6.1
2017-Jul-22 10:00N 40°43' W 074°01'612.7
2017-Jul-22 09:30N 40°37' W 074°03'815.6
2017-Jul-22 09:00N 40°30' W 073°57'815.4
2017-Jul-22 08:30N 40°26' W 073°49'815.2
2017-Jul-22 08:00N 40°19' W 073°46'1016.0
2017-Jul-22 07:22N 40°09' W 073°45'616.0
2017-Jul-22 06:59N 40°03' W 073°44'816.1
2017-Jul-22 06:30N 39°55' W 073°43'816.5
2017-Jul-22 06:00N 39°47' W 073°43'816.1
2017-Jul-22 05:31N 39°39' W 073°42'816.0
2017-Jul-22 05:01N 39°31' W 073°41'816.2
2017-Jul-22 04:30N 39°23' W 073°41'816.1
2017-Jul-22 04:01N 39°15' W 073°41'816.1
2017-Jul-22 03:30N 39°07' W 073°41'816.1
2017-Jul-22 03:00N 38°59' W 073°41'816.2
2017-Jul-22 02:30N 38°51' W 073°40'816.0
2017-Jul-22 02:00N 38°43' W 073°40'815.8
2017-Jul-22 01:30N 38°35' W 073°40'816.0
2017-Jul-22 01:00N 38°27' W 073°40'816.2
2017-Jul-22 00:30N 38°19' W 073°39'816.4
2017-Jul-22 00:00N 38°11' W 073°39'816.3
2017-Jul-21 23:31N 38°02' W 073°39'915.8
2017-Jul-21 22:56N 37°53' W 073°39'58716.3
2017-Jul-20 11:00N 28°24' W 076°30'173 3.7 010 / 111021.010.8 27.024.130.0
2017-Jul-18 12:00N 25°54' W 078°06'40210.9 170 / 121020.010.8 28.016.920.0
2017-Jul-16 23:00N 32°36' W 077°48'9820.0 230 / 111014.027.0 28.020.530.0
2017-Jul-16 18:06N 33°57' W 076°41'218.5
2017-Jul-16 17:58N 33°59' W 076°39'818.2
2017-Jul-16 17:30N 34°05' W 076°32'1019.1
2017-Jul-16 16:59N 34°12' W 076°24'1019.1
2017-Jul-16 16:29N 34°18' W 076°15'918.9
2017-Jul-16 16:00N 34°23' W 076°07'7719.2
2017-Jul-16 12:00N 35°18' W 075°00'20720.9 360 / 141016.010.8 22.020.521.0
2017-Jul-16 02:06N 38°40' W 074°05'620.4
2017-Jul-16 01:49N 38°46' W 074°03'1419.9
2017-Jul-16 01:07N 38°60' W 074°01'319.3
2017-Jul-16 00:57N 39°03' W 073°60'919.8
2017-Jul-16 00:30N 39°12' W 073°58'1219.9
2017-Jul-15 23:54N 39°24' W 073°56'819.7
2017-Jul-15 23:29N 39°32' W 073°54'1019.7
2017-Jul-15 22:59N 39°41' W 073°52'1019.7
2017-Jul-15 22:29N 39°51' W 073°51'2520.3
2017-Jul-15 21:14N 40°16' W 073°49'520.6
2017-Jul-15 21:00N 40°21' W 073°49'713.3
2017-Jul-15 20:30N 40°28' W 073°51'1019.2
2017-Jul-15 20:00N 40°33' W 074°02'816.1
2017-Jul-15 19:31N 40°41' W 074°02'511.0
2017-Jul-15 19:00N 40°46' W 074°00'0 0.5
2017-Jul-15 18:28N 40°46' W 073°60'0 0.0
2017-Jul-15 17:58N 40°46' W 073°60'0 0.0
2017-Jul-15 17:30N 40°46' W 073°60'0 0.0
2017-Jul-15 17:00N 40°46' W 073°60'0 0.0
2017-Jul-15 16:30N 40°46' W 073°60'0 0.0
2017-Jul-15 16:00N 40°46' W 073°60'0 0.0
2017-Jul-15 15:30N 40°46' W 073°60'0 0.0
2017-Jul-15 14:59N 40°46' W 073°60'0 0.0
2017-Jul-15 13:59N 40°46' W 073°60'0 0.0
2017-Jul-15 13:29N 40°46' W 073°60'0 0.0
2017-Jul-15 12:58N 40°46' W 073°60'0 0.0
2017-Jul-15 12:22N 40°46' W 073°60'0 0.0
2017-Jul-15 11:58N 40°46' W 073°60'0 0.0
2017-Jul-15 11:28N 40°46' W 073°60'0 0.0
2017-Jul-15 11:00N 40°46' W 073°60'0 0.0
2017-Jul-15 10:30N 40°46' W 073°60'0 0.0
2017-Jul-15 10:00N 40°46' W 073°60'0 0.0
2017-Jul-15 09:30N 40°46' W 073°60'0 0.5
2017-Jul-15 09:00N 40°46' W 074°00'4 9.2
2017-Jul-15 08:31N 40°42' W 074°02'713.7
2017-Jul-15 08:01N 40°35' W 074°02'816.8
2017-Jul-15 07:31N 40°29' W 073°54'612.3
2017-Jul-15 06:59N 40°25' W 073°47'714.6
2017-Jul-15 06:29N 40°18' W 073°46'1018.2
2017-Jul-15 05:56N 40°08' W 073°45'818.0
2017-Jul-15 05:30N 40°00' W 073°44'917.9
2017-Jul-15 04:59N 39°51' W 073°43'918.4
2017-Jul-15 04:28N 39°42' W 073°42'817.7
2017-Jul-15 04:00N 39°33' W 073°43'816.4
2017-Jul-15 03:30N 39°25' W 073°44'816.5
2017-Jul-15 02:59N 39°17' W 073°44'1316.7
2017-Jul-15 02:13N 39°04' W 073°46'516.6
2017-Jul-15 01:53N 38°58' W 073°46'6416.5
2017-Jul-14 22:00N 37°54' W 073°48'   210 / 151016.010.8 27.022.628.0

Dump ship's entire track history